createdAt,value
2022-12-27T00:00:08.530Z,8.87
2022-12-27T00:02:38.656Z,8.37
2022-12-27T00:05:07.658Z,8.97
2022-12-27T00:07:34.827Z,8.90
2022-12-27T00:10:02.173Z,10.13
2022-12-27T00:12:29.228Z,9.93
2022-12-27T00:14:56.233Z,9.57
2022-12-27T00:17:23.276Z,9.80
2022-12-27T00:19:50.294Z,9.70
2022-12-27T00:22:17.322Z,9.97
2022-12-27T00:24:44.304Z,9.87
2022-12-27T00:27:11.681Z,9.73
2022-12-27T00:29:38.761Z,9.67
2022-12-27T00:32:05.970Z,10.00
2022-12-27T00:34:33.205Z,10.33
2022-12-27T00:37:00.280Z,9.43
2022-12-27T00:39:27.404Z,9.17
2022-12-27T00:41:54.415Z,9.53
2022-12-27T00:44:21.433Z,9.40
2022-12-27T00:46:48.439Z,9.53
2022-12-27T00:49:15.458Z,9.77
2022-12-27T00:51:42.476Z,8.90
2022-12-27T00:54:09.479Z,8.77
2022-12-27T00:56:36.588Z,9.17
2022-12-27T00:59:05.435Z,8.20
2022-12-27T01:01:36.131Z,8.50
2022-12-27T01:04:05.166Z,9.07
2022-12-27T01:06:34.951Z,9.07
2022-12-27T01:09:03.994Z,8.90
2022-12-27T01:11:31.998Z,8.97
2022-12-27T01:14:02.159Z,8.77
2022-12-27T01:16:31.905Z,7.93
2022-12-27T01:19:00.235Z,7.90
2022-12-27T01:21:30.742Z,9.27
2022-12-27T01:23:58.867Z,7.77
2022-12-27T01:26:26.028Z,7.63
2022-12-27T01:28:54.611Z,8.33
2022-12-27T01:31:25.815Z,8.00
2022-12-27T01:33:59.731Z,7.97
2022-12-27T01:36:29.416Z,8.37
2022-12-27T01:38:56.639Z,8.40
2022-12-27T01:41:55.566Z,7.93
2022-12-27T01:44:43.000Z,7.60
2022-12-27T01:47:17.213Z,7.53
2022-12-27T01:50:15.584Z,7.30
2022-12-27T01:53:06.034Z,7.70
2022-12-27T01:55:38.861Z,6.63
2022-12-27T01:58:22.377Z,7.63
2022-12-27T02:00:51.225Z,7.40
2022-12-27T02:03:54.177Z,7.00
2022-12-27T02:06:23.622Z,7.00
2022-12-27T02:09:07.378Z,6.93
2022-12-27T02:11:51.767Z,6.47
2022-12-27T02:14:58.656Z,5.93
2022-12-27T02:17:29.430Z,6.60
2022-12-27T02:20:14.335Z,6.43
2022-12-27T02:23:37.687Z,6.33
2022-12-27T02:26:27.957Z,6.17
2022-12-27T02:29:26.406Z,5.97
2022-12-27T02:32:24.609Z,5.80
2022-12-27T02:35:08.627Z,5.80
2022-12-27T02:38:04.060Z,5.73
2022-12-27T02:40:51.298Z,5.77
2022-12-27T02:43:37.336Z,5.30
2022-12-27T02:46:41.878Z,5.70
2022-12-27T02:49:50.259Z,5.17
2022-12-27T02:52:44.244Z,4.93
2022-12-27T02:55:19.984Z,5.20
2022-12-27T02:58:24.450Z,4.83
2022-12-27T03:01:30.999Z,5.53
2022-12-27T03:04:48.774Z,5.13
2022-12-27T03:07:55.811Z,5.53
2022-12-27T03:11:00.004Z,5.50
2022-12-27T03:13:59.163Z,5.13
2022-12-27T03:16:38.024Z,4.60
2022-12-27T03:19:57.301Z,4.23
2022-12-27T03:22:47.690Z,3.00
2022-12-27T03:25:29.193Z,2.50
2022-12-27T03:28:40.199Z,2.00
2022-12-27T03:31:47.605Z,1.60
2022-12-27T03:34:35.871Z,0.90
2022-12-27T03:37:49.307Z,1.23
2022-12-27T03:40:30.903Z,0.93
2022-12-27T03:43:12.898Z,1.13
2022-12-27T03:46:36.561Z,0.90
2022-12-27T03:49:39.937Z,0.97
2022-12-27T03:52:34.132Z,1.07
2022-12-27T03:55:02.427Z,1.13
2022-12-27T03:57:29.810Z,1.13
2022-12-27T03:59:57.104Z,1.23
2022-12-27T04:02:24.811Z,1.27
2022-12-27T04:04:52.103Z,1.20
2022-12-27T04:07:19.191Z,0.80
2022-12-27T04:10:04.972Z,1.30
2022-12-27T04:12:50.571Z,1.03
2022-12-27T04:15:36.159Z,3.10
2022-12-27T04:18:21.826Z,2.87
2022-12-27T04:21:07.700Z,1.97
2022-12-27T04:23:53.245Z,1.80
2022-12-27T04:26:38.690Z,1.40
2022-12-27T04:29:24.128Z,1.10
2022-12-27T04:32:09.792Z,0.90
2022-12-27T04:34:39.929Z,1.20
2022-12-27T04:37:07.183Z,1.33
2022-12-27T04:39:34.225Z,1.47
2022-12-27T04:42:19.989Z,1.17
2022-12-27T04:45:10.224Z,1.17
2022-12-27T04:47:59.011Z,1.93
2022-12-27T04:50:48.218Z,2.07
2022-12-27T04:53:40.382Z,1.33
2022-12-27T04:56:07.829Z,1.17
2022-12-27T04:58:35.074Z,1.17
2022-12-27T05:01:23.468Z,1.10
2022-12-27T05:03:53.283Z,1.00
2022-12-27T05:06:20.487Z,1.43
2022-12-27T05:09:07.284Z,1.50
2022-12-27T05:11:52.832Z,1.67
2022-12-27T05:14:19.863Z,1.50
2022-12-27T05:16:46.899Z,1.63
2022-12-27T05:19:15.415Z,1.77
2022-12-27T05:22:05.170Z,1.87
2022-12-27T05:24:51.682Z,1.17
2022-12-27T05:27:19.139Z,1.87
2022-12-27T05:29:47.557Z,1.80
2022-12-27T05:32:14.568Z,1.60
2022-12-27T05:34:42.010Z,1.37
2022-12-27T05:37:09.410Z,2.37
2022-12-27T05:39:36.579Z,1.50
2022-12-27T05:42:03.963Z,1.67
2022-12-27T05:44:31.007Z,2.17
2022-12-27T05:46:58.084Z,1.77
2022-12-27T05:49:25.151Z,1.90
2022-12-27T05:51:52.161Z,2.53
2022-12-27T05:54:19.290Z,2.80
2022-12-27T05:56:46.563Z,2.50
2022-12-27T05:59:13.586Z,1.90
2022-12-27T06:01:40.696Z,1.73
2022-12-27T06:04:07.795Z,1.57
2022-12-27T06:06:35.416Z,1.57
2022-12-27T06:09:02.555Z,2.00
2022-12-27T06:11:29.622Z,1.83
2022-12-27T06:13:56.781Z,2.40
2022-12-27T06:16:23.988Z,2.50
2022-12-27T06:18:51.040Z,1.70
2022-12-27T06:21:21.888Z,2.10
2022-12-27T06:23:49.960Z,2.00
2022-12-27T06:26:24.441Z,1.60
2022-12-27T06:28:52.386Z,1.90
2022-12-27T06:31:20.659Z,2.03
2022-12-27T06:33:50.475Z,1.87
2022-12-27T06:36:21.886Z,2.77
2022-12-27T06:38:49.154Z,2.10
2022-12-27T06:41:18.419Z,2.73
2022-12-27T06:43:47.163Z,2.13
2022-12-27T06:46:18.445Z,1.63
2022-12-27T06:48:47.373Z,2.33
2022-12-27T06:51:18.015Z,1.80
2022-12-27T06:53:45.085Z,2.27
2022-12-27T06:56:16.964Z,2.10
2022-12-27T06:58:45.647Z,1.80
2022-12-27T07:01:18.631Z,1.77
2022-12-27T07:03:54.588Z,2.00
2022-12-27T07:06:23.482Z,2.07
2022-12-27T07:08:51.251Z,1.90
2022-12-27T07:11:19.592Z,1.80
2022-12-27T07:13:49.782Z,1.87
2022-12-27T07:16:20.749Z,2.10
2022-12-27T07:18:49.935Z,2.67
2022-12-27T07:21:22.281Z,2.37
2022-12-27T07:23:50.351Z,2.20
2022-12-27T07:26:29.918Z,2.37
2022-12-27T07:29:00.139Z,2.73
2022-12-27T07:31:31.142Z,2.30
2022-12-27T07:34:00.276Z,2.07
2022-12-27T07:36:33.227Z,1.63
2022-12-27T07:39:00.529Z,2.20
2022-12-27T07:41:27.681Z,2.30
2022-12-27T07:43:54.837Z,2.30
2022-12-27T07:46:25.806Z,2.30
2022-12-27T07:48:58.306Z,2.43
2022-12-27T07:51:27.439Z,1.80
2022-12-27T07:53:55.378Z,2.00
2022-12-27T07:56:26.811Z,2.37
2022-12-27T07:58:57.576Z,1.60
2022-12-27T08:01:28.122Z,2.00
2022-12-27T08:03:56.071Z,2.00
2022-12-27T08:06:33.700Z,2.17
2022-12-27T08:09:06.943Z,2.10
2022-12-27T08:11:34.003Z,1.97
2022-12-27T08:14:01.061Z,2.50
2022-12-27T08:16:28.211Z,2.13
2022-12-27T08:18:55.976Z,2.87
2022-12-27T08:21:23.960Z,2.40
2022-12-27T08:23:51.086Z,2.97
2022-12-27T08:26:18.142Z,3.47
2022-12-27T08:28:45.151Z,2.47
2022-12-27T08:31:13.609Z,2.90
2022-12-27T08:33:42.123Z,3.03
2022-12-27T08:38:59.746Z,2.20
2022-12-27T08:41:26.832Z,2.47
2022-12-27T08:43:53.952Z,2.67
2022-12-27T08:46:21.048Z,2.60
2022-12-27T08:48:49.678Z,2.70
2022-12-27T08:51:26.564Z,2.47
2022-12-27T20:19:09.140Z,4.67
2022-12-27T20:21:36.135Z,4.17
2022-12-27T20:24:03.412Z,4.77
2022-12-27T20:26:30.504Z,5.30
2022-12-27T20:28:59.376Z,4.67
2022-12-27T20:31:26.680Z,4.57
2022-12-27T20:33:55.827Z,4.93
2022-12-27T20:36:24.305Z,5.40
2022-12-27T20:38:51.367Z,4.33
2022-12-27T20:41:21.643Z,4.57
2022-12-27T20:43:53.770Z,5.13
2022-12-27T20:46:20.855Z,5.10
2022-12-27T20:48:47.986Z,4.57
2022-12-27T20:51:25.219Z,4.30
2022-12-27T20:53:57.976Z,5.10
2022-12-27T20:56:25.709Z,5.10
2022-12-27T20:58:53.795Z,4.60
2022-12-27T21:01:26.269Z,4.50
2022-12-27T21:03:56.223Z,4.33
2022-12-27T21:06:28.668Z,4.73
2022-12-27T21:08:58.207Z,5.33
2022-12-27T21:11:35.140Z,4.30
2022-12-27T21:14:04.424Z,4.47
2022-12-27T21:16:34.349Z,4.67
2022-12-27T21:19:05.308Z,5.60
2022-12-27T21:21:36.400Z,4.43
2022-12-27T21:24:05.748Z,4.80
2022-12-27T21:26:36.792Z,5.53
2022-12-27T21:29:07.897Z,5.67
2022-12-27T21:31:36.140Z,4.77
2022-12-27T21:34:04.106Z,5.50
2022-12-27T21:36:34.208Z,5.60
2022-12-27T21:39:02.151Z,5.07
2022-12-27T21:41:33.318Z,5.20
2022-12-27T21:44:00.746Z,5.63
2022-12-27T21:46:35.134Z,5.53
2022-12-27T21:49:08.729Z,6.57
2022-12-27T21:51:37.912Z,5.37
2022-12-27T21:54:05.279Z,5.60
2022-12-27T21:56:32.369Z,5.93
2022-12-27T21:59:00.523Z,5.53
2022-12-27T22:01:30.744Z,5.60
2022-12-27T22:04:17.689Z,5.37
2022-12-27T22:06:47.071Z,5.63
2022-12-27T22:09:15.144Z,6.63
2022-12-27T22:11:42.372Z,5.50
2022-12-27T22:14:09.404Z,6.27
2022-12-27T22:16:39.290Z,6.53
2022-12-27T22:19:12.067Z,5.53
2022-12-27T22:21:40.918Z,4.90
2022-12-27T22:24:19.327Z,5.30
2022-12-27T22:26:48.731Z,5.27
2022-12-27T22:29:15.968Z,5.40
2022-12-27T22:31:43.041Z,5.80
2022-12-27T22:34:10.072Z,5.87
2022-12-27T22:36:37.120Z,6.10
2022-12-27T22:39:04.532Z,5.10
2022-12-27T22:41:34.413Z,5.57
2022-12-27T22:44:08.170Z,5.13
2022-12-27T22:49:22.676Z,5.33
2022-12-27T22:51:49.704Z,5.33
2022-12-27T22:54:16.755Z,5.87
2022-12-27T22:56:43.815Z,5.20
2022-12-27T22:59:18.933Z,4.70
2022-12-27T23:01:46.292Z,5.60
2022-12-27T23:04:15.007Z,4.93
2022-12-27T23:06:42.557Z,4.93
2022-12-27T23:09:10.247Z,5.30
2022-12-27T23:11:41.124Z,5.20
2022-12-27T23:14:15.254Z,4.70
2022-12-27T23:16:45.736Z,5.20
2022-12-27T23:19:16.016Z,5.17
2022-12-27T23:21:43.167Z,4.80
2022-12-27T23:24:11.672Z,5.57
2022-12-27T23:26:39.074Z,5.17
2022-12-27T23:29:06.666Z,4.77
2022-12-27T23:31:35.455Z,5.43
2022-12-27T23:34:27.589Z,4.77
2022-12-27T23:36:57.234Z,5.10
2022-12-27T23:39:24.523Z,5.10
2022-12-27T23:41:51.606Z,4.90
2022-12-27T23:44:34.553Z,4.60
2022-12-27T23:47:04.533Z,5.77
2022-12-27T23:49:31.736Z,4.57
2022-12-27T23:51:58.947Z,5.60
2022-12-27T23:54:26.008Z,5.63
2022-12-27T23:56:53.086Z,5.47
2022-12-27T23:59:20.267Z,4.60
